Crooksville, Ohio
Current Conditions -  °F | °C
As of 1:45 AM on Monday 24 Nov 2014 (Local Time) from KZZV Reporting Station
Light Rain Light Rain  
Wind Chill: 56°   Ceiling: 1900
Heat Index: 56°   Visibility: 4mi
Dew Point: 53°   Wind: 15mph
Humidity: 90%   Direction: 170°S
Pressure: 29.34"   Gusts: 23mph
Location:  39.77°N, 82.09°W
Report Text: KZZV 240645Z AUTO 17013G20KT 4SM -RA BR SCT013 BKN019 OVC033 13/12 A2934 RMK AO2 RAB00 P0002 T01330117
Loading
Personal Weather Stations






























Interactive Weather Map New forecast layout! Learn more

10-Day Weather Forecast

Advertisements
Track Severe Weather on mobile